Eldorado, WI (54932)

11:24 AM CST on February 07, 2016 (GMT -0600)
Town of Rosendale | | Change Station
CLOSE
Current Station
Personal Weather Station
Location: Rosendale, WI
Elevation: 906 ft
Nearby Weather Stations

Elev 906 ft 43.82 °N, 88.71 °W | Updated 11 minutes ago

Clear
Clear
40.6 °F
Feels Like 34 °F
N
10.9
Wind Variable Wind from SSW

Today
High -- | Low -- °F
--% Chance of Precip.
Yesterday
High -- | Low -- °F
Precip. -- in
Pressure 29.68 in
Visibility 10.0 miles
Clouds Clear
Windchill 34 °F
Dew Point 35 °F
Humidity 81%
Rainfall 0.07 in
Snow Depth Not available.
7:05 AM 5:12 PM
Waning Crescent, 1% visible
METAR KFLD 071653Z AUTO 22010KT 10SM CLR 04/M01 A2965 RMK AO2 SLP049 T00391011
Pressure 29.68 in
Visibility 10.0 miles
Clouds Clear
Windchill 34 °F
Dew Point 35 °F
Humidity 81%
Rainfall 0.07 in
Snow Depth Not available.
7:05 AM 5:12 PM
Waning Crescent, 1% visible
METAR KFLD 071653Z AUTO 22010KT 10SM CLR 04/M01 A2965 RMK AO2 SLP049 T00391011

10-Day Weather Forecast

Almanac

Astronomy

Feb. 07, 2016 Rise Set
Actual Time
Civil Twilight
Nautical Twilight
Astronomical Twilight
Moon
Length of Visible Light
Length of Day
Tomorrow will be .
, % of the Moon is Illuminated

Today's Extremes

State Highs State Lows

Community

WunderPhotos

Upload Photos

1,891,237 photos uploaded!

WunderBlog® & News

Nearby

Air Quality

  Air Quality AQ Index Pollutant
Not available.

Snow Depth

Station Depth Elevation

Earthquake Activity

City Distance Mag. Time & Date
Minimum magnitude displayed is 2.5.

Coastal Water Temperatures

Place Temperature

Stations

Nearby Weather Stations

Station Location Temp. Windchill Dew Point Humidity Wind Precip. Elev Updated Type
                   

Watches & Warnings

There are currently no watches in effect.